Vernon Rockville, Connecticut
Current Conditions -  °F | °C
As of 5:53 PM on Wednesday 26 Nov 2014 (Local Time) from KHFD Reporting Station
Moderate Rain Moderate Rain  
Wind Chill: 25°   Ceiling: 700
Heat Index: 34°   Visibility: 3mi
Dew Point: 32°   Wind: 13mph
Humidity: 92%   Direction: 360°N
Pressure: 29.81"   Gusts: 21mph
Location:  41.84°N, 72.47°W
Report Text: KHFD 262253Z 36011G18KT 3SM RA BR BKN007 OVC023 01/00 A2981 RMK AO2 PRESFR SLP093 P0008 I1000 T00110000
Loading
Personal Weather Stations






























Interactive Weather Map New forecast layout! Learn more

10-Day Weather Forecast

Advertisements
Track Severe Weather on mobile